首页
METAR-TAF:

METAR-TAF

机场 :

愛麗斯泉機場

愛麗斯泉, 澳大利亚

纬度: 23-48S, 经度: 133-53E, 海拔: 545米

当前天气观测

该预报发布于11分钟前的00:00 UTC
风速9节,风向
温度 17°C
湿度 23%
气压 1019 hPa
能见度10公里或以上
1500米以下无云,无积雨云

METAR: YBAS 170000Z 08009KT CAVOK 17/M04 Q1019

时间: 09:41 (00:11 UTC)

预报

该预报发布于1小时和4分钟前的23:07 UTC
预报有效从17日的 00点(UTC)到 17日的 24点(UTC)
风速6节,风向
能见度10公里或以上
1500米以下无云,无积雨云

TAF: YBAS 162307Z 1700/1724 36006KT CAVOK

超过4000个机场的气象观测和天气预报(METAR&TAF报告)。

可查询的气象台以黄色和红色小点在地图上表示。

将鼠标移到小点上方,可查看气象台名称。

然后点击查看天气观测和预报。

如需切换地图:点击带黑十字的绿色按钮放大地图;点击带横线的绿色按钮缩小地图;或者点击绿色箭头查看邻近地区的地图。


METAR-TAF: